Time;durP1;ratioP1;P1;durP2;ratioP2;P2;SDS_P1;SDS_P2;PMS_P1;PMS_P2;Temp;Humidity;BMP_temperature;BMP_pressure;BME280_temperature;BME280_humidity;BME280_pressure;Samples;Min_cycle;Max_cycle;Signal;HPM_P1;HPM_P2
2023/06/28 00:01:01;;;;;;;4.20;1.50;;;;;;;16.25;81.04;101796.97;5047009;28;20029;-81
2023/06/28 00:03:27;;;;;;;2.72;1.50;;;;;;;16.28;81.18;101801.25;5047583;28;20526;-81
2023/06/28 00:05:53;;;;;;;3.60;1.80;;;;;;;16.30;80.98;101802.94;5044207;28;20033;-82
2023/06/28 00:08:18;;;;;;;3.92;1.70;;;;;;;16.32;81.38;101800.25;5046683;28;20035;-82
2023/06/28 00:10:43;;;;;;;2.80;1.67;;;;;;;16.33;81.40;101791.44;5049341;28;20104;-81
2023/06/28 00:13:09;;;;;;;3.65;1.75;;;;;;;16.30;81.29;101791.56;5047332;28;20033;-81
2023/06/28 00:15:34;;;;;;;3.40;1.80;;;;;;;16.28;81.80;101790.75;5047976;28;20024;-81
2023/06/28 00:18:04;;;;;;;3.47;1.85;;;;;;;16.27;81.66;101794.28;5050587;28;20086;-81
2023/06/28 00:20:30;;;;;;;4.30;2.00;;;;;;;16.28;82.07;101785.50;5047955;28;20033;-81
2023/06/28 00:22:55;;;;;;;4.30;2.30;;;;;;;16.29;82.31;101790.72;5049852;28;20059;-81
2023/06/28 00:25:21;;;;;;;3.67;2.25;;;;;;;16.30;82.77;101802.06;5049343;28;20395;-81
2023/06/28 00:27:46;;;;;;;5.25;2.20;;;;;;;16.31;82.12;101801.16;5047725;28;20029;-81
2023/06/28 00:30:12;;;;;;;3.90;2.13;;;;;;;16.33;81.64;101808.06;5046701;28;20120;-81
2023/06/28 00:32:37;;;;;;;3.72;2.00;;;;;;;16.35;81.88;101800.13;5048511;28;20036;-82
2023/06/28 00:35:04;;;;;;;3.50;1.92;;;;;;;16.36;82.87;101801.84;5049949;28;20033;-82
2023/06/28 00:37:30;;;;;;;3.95;2.08;;;;;;;16.35;82.31;101806.22;5050917;28;20021;-81
2023/06/28 00:39:56;;;;;;;4.22;2.00;;;;;;;16.32;81.66;101805.50;5049053;28;20066;-82
2023/06/28 00:42:21;;;;;;;4.30;2.00;;;;;;;16.30;81.88;101809.94;5051052;28;20365;-81
2023/06/28 00:44:46;;;;;;;3.55;2.00;;;;;;;16.28;82.42;101803.88;5050419;28;20037;-81
2023/06/28 00:47:12;;;;;;;3.50;2.03;;;;;;;16.28;83.18;101798.63;5049945;28;20029;-81
2023/06/28 00:49:38;;;;;;;3.67;2.20;;;;;;;16.30;83.25;101807.31;5050505;28;20029;-81
2023/06/28 00:52:05;;;;;;;3.97;2.00;;;;;;;16.30;84.14;101796.81;5050577;28;20476;-82
2023/06/28 00:54:30;;;;;;;3.17;1.75;;;;;;;16.30;84.28;101808.19;5048216;28;20112;-81
2023/06/28 00:56:56;;;;;;;4.22;1.90;;;;;;;16.27;84.12;101803.03;5045880;28;20074;-81
2023/06/28 00:59:21;;;;;;;4.43;2.17;;;;;;;16.27;84.56;101803.03;5042102;28;20036;-81
2023/06/28 01:01:48;;;;;;;5.47;2.45;;;;;;;16.26;84.69;101801.31;5041105;28;20032;-81
2023/06/28 01:04:13;;;;;;;3.45;2.45;;;;;;;16.26;85.00;101800.44;5040245;28;20107;-81
2023/06/28 01:06:41;;;;;;;5.93;2.80;;;;;;;16.27;85.18;101796.91;5045406;28;20474;-81
2023/06/28 01:09:08;;;;;;;6.03;3.03;;;;;;;16.28;85.21;101798.63;5040452;28;20404;-81
2023/06/28 01:11:34;;;;;;;5.32;3.42;;;;;;;16.26;85.45;101797.81;5043655;28;20051;-81
2023/06/28 01:14:01;;;;;;;6.30;3.45;;;;;;;16.27;85.80;101796.91;5047719;28;20025;-81
2023/06/28 01:16:27;;;;;;;5.57;3.15;;;;;;;16.26;85.69;101801.31;5047813;28;20052;-81
2023/06/28 01:18:52;;;;;;;4.38;2.60;;;;;;;16.26;85.42;101795.19;5044663;28;20597;-81
2023/06/28 01:21:20;;;;;;;5.85;2.47;;;;;;;16.24;85.09;101796.09;5044983;28;20029;-81
2023/06/28 01:23:45;;;;;;;5.45;2.55;;;;;;;16.26;84.87;101795.19;5042609;28;20111;-81
2023/06/28 01:26:11;;;;;;;5.38;2.10;;;;;;;16.24;84.75;101788.22;5045722;28;20056;-81
2023/06/28 01:28:37;;;;;;;4.85;2.20;;;;;;;16.26;85.14;101788.19;5045346;28;20033;-81
2023/06/28 01:31:03;;;;;;;6.32;2.35;;;;;;;16.26;85.06;101779.44;5047060;28;20041;-81
2023/06/28 01:33:29;;;;;;;6.20;2.85;;;;;;;16.26;84.91;101782.06;5043964;28;20025;-81
2023/06/28 01:35:56;;;;;;;6.35;3.70;;;;;;;16.24;84.18;101780.34;5045818;28;20033;-81
2023/06/28 01:38:22;;;;;;;7.05;3.55;;;;;;;16.23;83.53;101785.66;5045625;28;20040;-81
2023/06/28 01:40:51;;;;;;;4.70;2.95;;;;;;;16.21;82.30;101785.72;5046942;28;20029;-81
2023/06/28 01:43:17;;;;;;;6.35;3.20;;;;;;;16.20;82.48;101786.63;5043973;28;20111;-81
2023/06/28 01:45:43;;;;;;;7.00;2.88;;;;;;;16.21;nan;101790.09;5045765;28;20163;-81
2023/06/28 01:48:08;;;;;;;6.22;2.67;;;;;;;16.19;82.14;101779.66;5042879;28;20040;-81
2023/06/28 01:50:33;;;;;;;5.55;2.40;;;;;;;16.19;82.48;101784.91;5046659;28;20026;-81
2023/06/28 01:53:01;;;;;;;7.03;2.33;;;;;;;16.18;82.75;101783.19;5042836;28;20029;-81
2023/06/28 01:55:28;;;;;;;4.45;2.40;;;;;;;16.17;82.72;101789.34;5046722;28;20114;-81
2023/06/28 01:57:53;;;;;;;4.80;2.10;;;;;;;16.15;82.68;101788.53;5047769;28;20044;-81
2023/06/28 02:00:19;;;;;;;3.70;2.22;;;;;;;16.17;82.87;101786.72;5046811;28;20041;-81
2023/06/28 02:02:44;;;;;;;7.80;2.30;;;;;;;16.15;82.77;101783.28;5050560;28;20067;-81
2023/06/28 02:05:09;;;;;;;4.28;2.15;;;;;;;16.15;83.18;101788.53;5049151;28;20017;-81
2023/06/28 02:07:34;;;;;;;4.70;2.05;;;;;;;16.15;83.15;101788.53;5052800;28;20020;-81
2023/06/28 02:10:00;;;;;;;4.38;2.15;;;;;;;16.17;84.44;101785.84;5051500;28;20047;-81
2023/06/28 02:12:25;;;;;;;5.20;2.38;;;;;;;16.14;83.51;101784.19;5050605;28;20074;-82
2023/06/28 02:14:52;;;;;;;4.50;2.63;;;;;;;16.13;83.83;101785.13;5050545;28;20534;-81
2023/06/28 02:17:20;;;;;;;7.90;3.03;;;;;;;16.12;83.50;101787.81;5051997;28;20403;-81
2023/06/28 02:19:47;;;;;;;5.03;3.17;;;;;;;16.12;84.02;101783.41;5033595;28;20027;-81
2023/06/28 02:22:13;;;;;;;4.55;2.67;;;;;;;16.10;83.31;101774.72;5052510;28;20035;-82
2023/06/28 02:24:38;;;;;;;7.97;2.88;;;;;;;16.06;82.26;101781.84;5051026;28;20033;-82
2023/06/28 02:27:04;;;;;;;4.18;2.40;;;;;;;16.05;82.66;101771.41;5051663;28;20341;-82
2023/06/28 02:29:29;;;;;;;3.55;2.25;;;;;;;16.02;82.43;101771.50;5033326;28;20025;-82
2023/06/28 02:31:55;;;;;;;4.93;2.35;;;;;;;16.03;81.36;101775.84;5051759;28;20028;-82
2023/06/28 02:34:20;;;;;;;4.25;2.50;;;;;;;16.01;82.68;101770.63;5048364;28;20032;-82
2023/06/28 02:36:46;;;;;;;5.68;2.38;;;;;;;16.02;83.58;101774.13;5051587;28;20391;-82
2023/06/28 02:39:11;;;;;;;4.18;2.30;;;;;;;16.02;83.34;101774.13;5034862;28;20032;-81
2023/06/28 02:41:36;;;;;;;3.30;2.22;;;;;;;16.03;84.27;101768.81;5052173;28;20031;-81
2023/06/28 02:44:01;;;;;;;4.18;2.45;;;;;;;16.03;84.45;101767.97;5051816;28;20032;-82
2023/06/28 02:46:27;;;;;;;4.47;2.45;;;;;;;15.99;84.54;101771.59;5052759;28;20012;-82
2023/06/28 02:48:52;;;;;;;6.07;2.38;;;;;;;15.95;83.96;101767.34;5051544;28;20021;-82
2023/06/28 02:51:17;;;;;;;3.25;2.15;;;;;;;15.90;83.61;101768.38;5052063;28;20353;-81
2023/06/28 02:53:44;;;;;;;3.17;1.95;;;;;;;15.89;84.15;101774.50;5033488;28;20112;-81
2023/06/28 02:56:12;;;;;;;3.70;1.95;;;;;;;15.87;83.84;101763.25;5048352;28;20026;-81
2023/06/28 02:58:38;;;;;;;3.05;1.67;;;;;;;15.83;82.68;101769.47;5050311;28;20029;-82
2023/06/28 03:01:03;;;;;;;4.97;2.00;;;;;;;15.82;83.00;101770.38;5049118;28;20491;-82
2023/06/28 03:03:33;;;;;;;3.70;2.13;;;;;;;15.81;82.87;101773.03;5051045;28;20037;-82
2023/06/28 03:05:58;;;;;;;4.07;2.13;;;;;;;15.77;83.28;101770.53;5047914;28;20027;-82
2023/06/28 03:08:24;;;;;;;3.53;2.20;;;;;;;15.77;83.43;101769.66;5046186;28;20379;-82
2023/06/28 03:10:49;;;;;;;4.47;2.15;;;;;;;15.77;83.44;101774.91;5048731;28;20048;-81
2023/06/28 03:13:14;;;;;;;4.00;1.95;;;;;;;15.77;84.01;101767.03;5049963;28;20025;-82
2023/06/28 03:15:40;;;;;;;6.38;2.33;;;;;;;15.76;84.11;101765.31;5050375;28;20017;-82
2023/06/28 03:18:05;;;;;;;3.72;2.03;;;;;;;15.75;84.38;101768.84;5048860;28;21476;-82
2023/06/28 03:20:30;;;;;;;4.20;2.30;;;;;;;15.74;84.17;101767.13;5049881;28;20025;-82
2023/06/28 03:22:55;;;;;;;3.40;1.77;;;;;;;15.73;83.67;101760.16;5049398;28;20052;-82
2023/06/28 03:25:21;;;;;;;4.28;1.90;;;;;;;15.72;84.16;101763.69;5047330;28;20021;-82
2023/06/28 03:27:46;;;;;;;3.78;2.03;;;;;;;15.71;84.70;101752.34;5048494;28;20025;-81
2023/06/28 03:30:11;;;;;;;2.40;1.77;;;;;;;15.71;84.77;101756.75;5051253;28;20052;-82
2023/06/28 03:32:37;;;;;;;4.68;1.98;;;;;;;15.71;84.89;101756.75;5051278;28;20042;-82
2023/06/28 03:35:02;;;;;;;3.97;2.08;;;;;;;15.69;85.14;101758.56;5048289;28;20322;-82
2023/06/28 03:37:28;;;;;;;3.92;2.13;;;;;;;15.67;85.19;101755.13;5048225;28;20051;-82
2023/06/28 03:39:53;;;;;;;4.65;2.05;;;;;;;15.67;84.84;101749.88;5051869;28;20024;-82
2023/06/28 03:42:18;;;;;;;3.88;2.10;;;;;;;15.67;85.41;101755.97;5047347;28;20480;-82
2023/06/28 03:44:43;;;;;;;4.00;2.25;;;;;;;15.67;85.63;101747.25;5051373;28;20036;-82
2023/06/28 03:47:09;;;;;;;4.10;2.20;;;;;;;15.67;85.19;101748.09;5049045;28;20020;-82
2023/06/28 03:49:34;;;;;;;4.10;2.22;;;;;;;15.67;85.53;101749.88;5048971;28;20020;-82
2023/06/28 03:51:59;;;;;;;4.75;2.28;;;;;;;15.67;85.33;101755.13;5049817;28;20357;-82
2023/06/28 03:54:24;;;;;;;5.10;2.50;;;;;;;15.65;85.74;101746.44;5048875;28;20074;-82
2023/06/28 03:56:51;;;;;;;7.57;2.38;;;;;;;15.63;85.46;101749.09;5049324;28;20388;-82
2023/06/28 03:59:16;;;;;;;4.68;2.42;;;;;;;15.61;85.57;101746.53;5050123;28;20032;-82
2023/06/28 04:01:41;;;;;;;5.50;2.45;;;;;;;15.60;85.44;101746.59;5047903;28;20025;-82
2023/06/28 04:04:07;;;;;;;4.90;2.47;;;;;;;15.58;85.54;101741.41;5045560;28;20077;-82
2023/06/28 04:06:32;;;;;;;5.32;2.72;;;;;;;15.56;85.81;101744.97;5045717;28;20021;-82
2023/06/28 04:08:57;;;;;;;4.22;2.60;;;;;;;15.55;85.89;101746.72;5047489;28;20044;-82
2023/06/28 04:11:22;;;;;;;4.90;2.55;;;;;;;15.55;85.96;101751.13;5047101;28;20075;-82
2023/06/28 04:13:48;;;;;;;5.25;2.58;;;;;;;15.54;86.34;101745.00;5046735;28;20112;-82
2023/06/28 04:16:13;;;;;;;5.65;2.95;;;;;;;15.55;86.55;101738.03;5032606;28;20029;-82
2023/06/28 04:18:39;;;;;;;6.07;2.80;;;;;;;15.53;86.68;101743.31;5044593;28;20025;-82
2023/06/28 04:21:05;;;;;;;6.55;2.65;;;;;;;15.54;86.80;101747.63;5050896;28;20033;-82
2023/06/28 04:23:30;;;;;;;4.43;2.63;;;;;;;15.55;87.10;101746.72;5046299;28;20028;-81
2023/06/28 04:25:57;;;;;;;6.47;2.97;;;;;;;15.55;87.24;101741.47;5048537;28;20020;-81
2023/06/28 04:28:23;;;;;;;8.65;3.03;;;;;;;15.56;87.50;101743.19;5028458;28;20106;-82
2023/06/28 04:30:48;;;;;;;5.47;2.78;;;;;;;15.58;87.95;101748.41;5047168;28;20033;-82
2023/06/28 04:33:18;;;;;;;4.80;2.80;;;;;;;15.58;87.68;101749.25;5045476;28;20025;-82
2023/06/28 04:35:46;;;;;;;4.03;2.72;;;;;;;15.58;87.77;101749.25;5045757;28;20107;-82
2023/06/28 04:38:13;;;;;;;5.78;2.63;;;;;;;15.60;88.11;101746.59;5022212;28;20420;-82
2023/06/28 04:40:39;;;;;;;6.53;3.25;;;;;;;15.62;88.18;101747.41;5030181;28;20021;-82
2023/06/28 04:43:09;;;;;;;6.57;3.13;;;;;;;15.64;88.55;101748.19;5033025;28;20025;-82
2023/06/28 04:45:36;;;;;;;4.72;3.03;;;;;;;15.66;88.62;101741.13;5046954;28;20048;-82
2023/06/28 04:48:03;;;;;;;6.97;3.33;;;;;;;15.66;88.96;101742.91;5033944;28;20025;-82
2023/06/28 04:50:28;;;;;;;6.53;3.03;;;;;;;15.69;89.12;101742.81;5052419;28;20025;-82
2023/06/28 04:52:54;;;;;;;6.78;3.05;;;;;;;15.73;89.01;101734.78;5052257;28;20029;-82
2023/06/28 04:55:19;;;;;;;5.93;3.20;;;;;;;15.73;89.46;101742.66;5048236;28;20536;-82
2023/06/28 04:57:44;;;;;;;5.18;3.08;;;;;;;15.74;88.90;101743.50;5051798;28;20025;-82
2023/06/28 05:00:11;;;;;;;6.95;3.30;;;;;;;15.75;88.86;101739.97;5052818;28;20028;-82
2023/06/28 05:02:36;;;;;;;4.68;3.25;;;;;;;15.74;88.59;101746.13;5032542;28;20456;-82
2023/06/28 05:05:02;;;;;;;5.75;3.25;;;;;;;15.75;88.78;101747.84;5040593;28;20047;-82
2023/06/28 05:07:28;;;;;;;8.20;3.65;;;;;;;15.76;88.77;101749.56;5044230;28;20025;-82
2023/06/28 05:09:54;;;;;;;7.13;3.60;;;;;;;15.76;88.59;101749.56;5045249;28;20029;-82
2023/06/28 05:12:19;;;;;;;5.70;3.20;;;;;;;15.75;88.29;101755.72;5047514;28;20111;-82
2023/06/28 05:14:45;;;;;;;7.15;3.58;;;;;;;15.76;88.37;101752.19;5028746;28;20112;-82
2023/06/28 05:17:10;;;;;;;5.85;3.42;;;;;;;15.76;88.20;101750.44;5044053;28;20040;-82
2023/06/28 05:19:35;;;;;;;5.55;3.13;;;;;;;15.77;87.98;101754.78;5047530;28;20421;-82
2023/06/28 05:22:01;;;;;;;7.07;3.50;;;;;;;15.77;87.72;101751.28;5050534;28;20017;-82
2023/06/28 05:24:26;;;;;;;5.35;3.10;;;;;;;15.76;87.36;101750.44;5052059;28;20059;-82
2023/06/28 05:26:51;;;;;;;7.60;3.25;;;;;;;15.76;86.90;101750.44;5053445;28;20025;-82
2023/06/28 05:29:19;;;;;;;6.18;2.97;;;;;;;15.77;87.29;101752.16;5054651;28;20454;-82
2023/06/28 05:31:44;;;;;;;7.20;2.95;;;;;;;15.77;87.21;101753.91;5048060;28;20071;-82
2023/06/28 05:34:11;;;;;;;5.68;3.03;;;;;;;15.77;86.43;101753.91;5050799;28;20049;-82
2023/06/28 05:36:36;;;;;;;5.78;3.28;;;;;;;15.77;86.91;101746.03;5027192;28;20061;-82
2023/06/28 05:39:02;;;;;;;6.78;3.30;;;;;;;15.74;87.58;101747.00;5053493;28;20079;-82
2023/06/28 05:41:27;;;;;;;6.15;3.33;;;;;;;15.75;87.20;101747.84;5054043;28;20043;-82
2023/06/28 05:43:53;;;;;;;6.30;3.53;;;;;;;15.77;87.97;101741.66;5050646;28;20029;-83
2023/06/28 05:46:18;;;;;;;4.50;3.00;;;;;;;15.80;88.44;101742.47;5048236;28;20104;-83
2023/06/28 05:48:45;;;;;;;7.05;3.38;;;;;;;15.79;88.40;101744.22;5049722;28;20084;-82
2023/06/28 05:51:12;;;;;;;7.28;3.55;;;;;;;15.82;88.81;101732.75;5052877;28;20029;-82
2023/06/28 05:53:41;;;;;;;4.90;3.05;;;;;;;15.82;88.60;101733.63;5047313;28;20032;-82
2023/06/28 05:56:07;;;;;;;7.47;3.28;;;;;;;15.84;88.18;101730.94;5048945;28;20523;-82
2023/06/28 05:58:32;;;;;;;5.68;3.25;;;;;;;15.87;87.82;101736.13;5051031;28;20025;-82
2023/06/28 06:00:58;;;;;;;6.15;3.38;;;;;;;15.88;87.48;101737.84;5049418;28;20127;-83
2023/06/28 06:03:23;;;;;;;6.97;3.50;;;;;;;15.90;87.92;101733.41;5048784;28;20526;-83
2023/06/28 06:05:49;;;;;;;6.13;3.28;;;;;;;15.92;88.05;101740.31;5051723;28;20464;-85
2023/06/28 06:08:14;;;;;;;6.53;3.40;;;;;;;15.94;88.81;101737.66;5047067;28;20025;-86
2023/06/28 06:10:39;;;;;;;5.32;3.33;;;;;;;15.97;88.51;101731.44;5050121;28;20059;-82
2023/06/28 06:13:06;;;;;;;7.22;3.85;;;;;;;15.98;88.52;101741.84;5052179;28;20060;-83
2023/06/28 06:15:31;;;;;;;6.22;3.75;;;;;;;15.99;88.04;101740.94;5050714;28;20037;-82
2023/06/28 06:17:57;;;;;;;6.40;3.80;;;;;;;15.99;88.51;101734.84;5050745;28;20116;-85
2023/06/28 06:20:22;;;;;;;8.13;3.88;;;;;;;16.00;88.73;101734.78;5032562;28;20060;-85
2023/06/28 06:22:49;;;;;;;6.10;3.38;;;;;;;16.01;88.59;101741.75;5048599;28;20044;-85
2023/06/28 06:25:14;;;;;;;5.50;3.67;;;;;;;16.03;88.77;101746.97;5052528;28;20024;-84
2023/06/28 06:27:40;;;;;;;6.40;3.80;;;;;;;16.06;88.60;101741.59;5030125;28;20041;-84
2023/06/28 06:30:06;;;;;;;7.72;3.75;;;;;;;16.06;89.21;101745.09;5048649;28;20027;-83
2023/06/28 06:32:31;;;;;;;7.68;4.00;;;;;;;16.06;88.84;101745.09;5044523;28;20060;-82
2023/06/28 06:35:00;;;;;;;7.95;4.03;;;;;;;16.07;88.68;101741.56;5046245;28;20025;-82
2023/06/28 06:37:26;;;;;;;5.90;3.60;;;;;;;16.09;88.45;101738.88;5026406;28;20032;-83
2023/06/28 06:39:51;;;;;;;6.63;3.90;;;;;;;16.13;88.98;101737.84;5046831;28;20067;-82
2023/06/28 06:42:16;;;;;;;7.32;4.13;;;;;;;16.19;89.74;101735.03;5043759;28;20159;-82
2023/06/28 06:44:42;;;;;;;6.28;3.92;;;;;;;16.23;89.29;101736.63;5051460;28;20107;-82
2023/06/28 06:47:07;;;;;;;6.78;3.80;;;;;;;16.26;89.75;101732.16;5050281;28;20383;-82
2023/06/28 06:49:32;;;;;;;6.53;3.67;;;;;;;16.24;88.71;101738.34;5050300;28;20021;-81
2023/06/28 06:51:58;;;;;;;7.10;3.70;;;;;;;16.23;88.88;101728.75;5048928;28;20206;-82
2023/06/28 06:54:30;;;;;;;7.47;3.80;;;;;;;16.27;89.10;101737.38;5048616;28;20082;-82
2023/06/28 06:56:56;;;;;;;6.70;3.85;;;;;;;16.29;89.44;101734.69;5050881;28;20460;-83
2023/06/28 06:59:23;;;;;;;7.85;3.83;;;;;;;16.30;89.42;101736.41;5046333;28;20028;-81
2023/06/28 07:01:49;;;;;;;5.85;3.60;;;;;;;16.31;89.08;101746.00;5047734;28;20092;-82
2023/06/28 07:04:15;;;;;;;9.23;4.00;;;;;;;16.33;89.36;101744.19;5031500;28;20403;-83
2023/06/28 07:06:40;;;;;;;5.55;3.58;;;;;;;16.37;89.42;101748.41;5048494;28;20028;-82
2023/06/28 07:09:06;;;;;;;5.38;3.67;;;;;;;16.36;87.98;101744.91;5048811;28;20025;-83
2023/06/28 07:11:31;;;;;;;8.18;3.88;;;;;;;16.37;87.59;101744.00;5050320;28;20025;-82
2023/06/28 07:13:56;;;;;;;10.25;3.63;;;;;;;16.40;88.17;101750.91;5040410;28;20439;-82
2023/06/28 07:16:22;;;;;;;7.13;3.28;;;;;;;16.41;87.09;101754.41;5041145;28;20100;-82
2023/06/28 07:18:47;;;;;;;6.15;3.40;;;;;;;16.42;86.67;101753.50;5044386;28;20025;-83
2023/06/28 07:21:14;;;;;;;6.18;3.55;;;;;;;16.46;87.41;101750.72;5042177;28;20021;-81
2023/06/28 07:23:39;;;;;;;7.72;3.58;;;;;;;16.46;85.65;101761.22;5042137;28;20017;-81
2023/06/28 07:26:04;;;;;;;7.47;3.78;;;;;;;16.47;85.34;101751.59;5044237;28;20043;-82
2023/06/28 07:28:29;;;;;;;7.22;3.60;;;;;;;16.47;84.96;101756.84;5046698;28;20020;-82
2023/06/28 07:30:57;;;;;;;8.52;4.10;;;;;;;16.48;85.84;101759.38;5046227;28;20459;-82
2023/06/28 07:33:22;;;;;;;6.85;3.42;;;;;;;16.51;84.39;101747.91;5041666;28;20025;-81
2023/06/28 07:35:49;;;;;;;7.38;3.88;;;;;;;16.54;85.97;101743.41;5043974;28;20423;-82
2023/06/28 07:38:16;;;;;;;6.63;3.65;;;;;;;16.60;86.83;101752.84;5047483;28;20082;-83
2023/06/28 07:40:42;;;;;;;6.70;3.45;;;;;;;16.64;86.49;101750.94;5046427;28;20533;-84
2023/06/28 07:43:07;;;;;;;7.07;4.07;;;;;;;16.64;85.94;101749.19;5044670;28;20028;-82
2023/06/28 07:45:33;;;;;;;6.57;3.75;;;;;;;16.68;86.95;101747.31;5044759;28;20031;-81
2023/06/28 07:47:59;;;;;;;6.10;4.15;;;;;;;16.71;86.64;101747.19;5021970;28;20025;-82
2023/06/28 07:50:24;;;;;;;7.93;4.10;;;;;;;16.75;86.42;101745.31;5044788;28;20486;-82
2023/06/28 07:52:49;;;;;;;8.70;4.30;;;;;;;16.80;86.97;101744.22;5046937;28;20037;-82
2023/06/28 07:55:14;;;;;;;6.72;4.00;;;;;;;16.83;84.75;101753.75;5043584;28;20494;-82
2023/06/28 07:57:40;;;;;;;7.20;4.25;;;;;;;16.86;84.46;101752.78;5044184;28;20024;-83
2023/06/28 08:00:06;;;;;;;6.60;4.13;;;;;;;16.88;84.68;101750.97;5045890;28;20059;-83
2023/06/28 08:02:31;;;;;;;6.63;3.78;;;;;;;16.90;84.02;101754.41;5042960;28;20380;-82
2023/06/28 08:04:58;;;;;;;6.47;3.60;;;;;;;16.90;82.94;101746.50;5043464;28;20047;-84
2023/06/28 08:07:23;;;;;;;7.35;3.47;;;;;;;16.91;83.04;101750.84;5041077;28;20047;-83
2023/06/28 08:09:49;;;;;;;6.60;3.17;;;;;;;16.91;nan;101756.09;5042737;28;20021;-86
2023/06/28 08:12:14;;;;;;;5.50;3.22;;;;;;;16.94;82.00;101758.59;5041865;28;20029;-82
2023/06/28 08:14:39;;;;;;;6.28;3.25;;;;;;;16.97;82.33;101750.63;5042388;28;20253;-83
2023/06/28 08:17:05;;;;;;;6.32;3.47;;;;;;;16.97;81.83;101755.88;5041196;28;20029;-83
2023/06/28 08:19:30;;;;;;;6.95;2.92;;;;;;;17.00;82.01;101750.53;5043826;28;20076;-83
2023/06/28 08:21:55;;;;;;;6.20;3.40;;;;;;;17.03;82.28;101755.66;5053451;28;20049;-82
2023/06/28 08:24:21;;;;;;;6.00;3.25;;;;;;;17.02;81.52;101753.94;5058134;28;20031;-82
2023/06/28 08:26:46;;;;;;;5.35;3.20;;;;;;;17.03;80.47;101745.16;5058147;28;20078;-82
2023/06/28 08:29:11;;;;;;;5.65;3.38;;;;;;;17.03;80.22;101750.41;5056147;28;20031;-82
2023/06/28 08:31:37;;;;;;;5.63;2.97;;;;;;;17.02;80.12;101748.69;5055882;28;20037;-82
2023/06/28 08:34:03;;;;;;;6.35;3.17;;;;;;;17.01;79.53;101746.09;5057884;28;20021;-82
2023/06/28 08:36:29;;;;;;;5.10;2.85;;;;;;;17.01;81.18;101749.59;5055169;28;20033;-83
2023/06/28 08:38:54;;;;;;;6.47;3.20;;;;;;;17.01;79.95;101751.34;5056913;28;20037;-82
2023/06/28 08:41:21;;;;;;;7.57;3.17;;;;;;;17.01;80.46;101756.63;5058210;28;20021;-82
2023/06/28 08:43:53;;;;;;;5.30;3.22;;;;;;;17.01;79.56;101756.63;5057766;28;20044;-80
2023/06/28 08:46:18;;;;;;;7.43;2.83;;;;;;;17.02;79.71;101760.97;5055653;28;20033;-83
2023/06/28 08:48:46;;;;;;;6.13;3.10;;;;;;;17.02;79.23;101753.94;5057000;28;20369;-82
2023/06/28 08:51:12;;;;;;;6.35;3.50;;;;;;;17.01;79.46;101749.59;5054415;28;20029;-82
2023/06/28 08:53:43;;;;;;;5.97;3.60;;;;;;;17.00;78.23;101750.53;5055596;28;20067;-82
2023/06/28 08:56:09;;;;;;;6.13;3.42;;;;;;;17.04;80.04;101752.13;5038818;28;20021;-81
2023/06/28 08:58:36;;;;;;;8.02;3.15;;;;;;;17.07;79.27;101751.13;5056824;28;20040;-81
2023/06/28 09:01:01;;;;;;;5.97;2.97;;;;;;;17.08;78.19;101748.44;5057070;28;20484;-82
2023/06/28 09:03:30;;;;;;;5.30;3.15;;;;;;;17.10;78.07;101751.88;5051499;28;20045;-83
2023/06/28 09:05:55;;;;;;;7.85;3.42;;;;;;;17.12;78.29;101744.78;5055307;28;20156;-82
2023/06/28 09:08:21;;;;;;;7.85;3.25;;;;;;;17.18;78.61;101742.84;5056488;28;20115;-82
2023/06/28 09:10:47;;;;;;;5.30;3.28;;;;;;;17.24;78.03;101747.88;5055944;28;20033;-83
2023/06/28 09:13:19;;;;;;;5.07;3.08;;;;;;;17.33;78.51;101746.66;5051496;28;20029;-81
2023/06/28 09:15:45;;;;;;;6.82;3.08;;;;;;;17.39;77.56;101741.13;5055205;28;20017;-81
2023/06/28 09:18:10;;;;;;;7.43;3.22;;;;;;;17.43;77.19;101746.19;5052094;28;20033;-81
2023/06/28 09:20:36;;;;;;;10.85;3.70;;;;;;;17.50;76.56;101738.06;5057217;28;20353;-81
2023/06/28 09:23:01;;;;;;;7.70;3.70;;;;;;;17.57;76.02;101743.00;5057568;28;20045;-81
2023/06/28 09:25:29;;;;;;;7.45;3.40;;;;;;;17.63;76.01;101739.25;5056007;28;20031;-81
2023/06/28 09:27:55;;;;;;;5.70;3.20;;;;;;;17.69;77.01;101741.66;5039476;28;20341;-81
2023/06/28 09:30:21;;;;;;;6.47;3.45;;;;;;;17.71;75.22;101736.31;5034394;28;20036;-81
2023/06/28 09:32:51;;;;;;;7.85;3.38;;;;;;;17.69;77.04;101746.91;5052718;28;20021;-81
2023/06/28 09:35:17;;;;;;;6.45;3.42;;;;;;;17.69;76.28;101744.28;5053348;28;20060;-81
2023/06/28 09:37:43;;;;;;;7.05;3.65;;;;;;;17.71;76.88;101739.81;5051785;28;20028;-82
2023/06/28 09:40:14;;;;;;;6.50;3.53;;;;;;;17.73;76.74;101737.09;5051400;28;20059;-81
2023/06/28 09:42:47;;;;;;;7.78;3.70;;;;;;;17.72;76.22;101738.91;5054125;28;20373;-82
2023/06/28 09:45:38;;;;;;;5.93;3.17;;;;;;;17.74;76.18;101744.09;5053518;28;20028;-82
2023/06/28 09:48:04;;;;;;;6.30;3.40;;;;;;;17.71;76.57;101745.09;5045661;28;20069;-82
2023/06/28 09:50:45;;;;;;;7.00;3.22;;;;;;;17.72;76.14;101738.03;5052192;28;20063;-82
2023/06/28 09:53:21;;;;;;;8.50;3.33;;;;;;;17.71;76.02;101742.44;5050536;28;20508;-81
2023/06/28 09:55:49;;;;;;;6.20;3.28;;;;;;;17.73;75.39;101743.25;5051449;28;20082;-82
2023/06/28 09:58:19;;;;;;;7.25;3.83;;;;;;;17.77;75.67;101737.81;5053971;28;20028;-81
2023/06/28 10:00:49;;;;;;;7.18;3.15;;;;;;;17.82;74.06;101743.75;5033750;28;20104;-80
2023/06/28 10:03:16;;;;;;;8.00;3.25;;;;;;;17.87;74.84;101741.81;5047595;28;20412;-82
2023/06/28 10:05:43;;;;;;;7.75;3.08;;;;;;;17.95;74.09;101738.84;5050398;28;20180;-83
2023/06/28 10:08:16;;;;;;;6.25;3.47;;;;;;;18.06;74.62;101731.38;5052562;28;20052;-82
2023/06/28 10:10:43;;;;;;;6.97;3.13;;;;;;;18.17;75.95;101729.13;5046931;28;20080;-82
2023/06/28 10:13:16;;;;;;;6.70;3.47;;;;;;;18.27;73.42;101729.59;5046072;28;20035;-83
2023/06/28 10:15:44;;;;;;;8.20;3.78;;;;;;;18.33;72.95;101726.66;5044558;28;20025;-81
2023/06/28 10:18:11;;;;;;;7.95;3.40;;;;;;;18.37;72.75;101729.16;5042227;28;20082;-82
2023/06/28 10:20:38;;;;;;;6.43;3.88;;;;;;;18.43;72.13;101732.38;5042907;28;20044;-81
2023/06/28 10:23:05;;;;;;;6.70;3.78;;;;;;;18.52;72.87;101725.00;5029803;28;20074;-82
2023/06/28 10:25:31;;;;;;;6.13;3.50;;;;;;;18.65;73.11;101721.72;5048593;28;20025;-81
2023/06/28 10:27:57;;;;;;;6.97;3.78;;;;;;;18.76;73.49;101728.31;5049465;28;20104;-80
2023/06/28 10:30:23;;;;;;;6.78;3.58;;;;;;;18.85;73.59;101725.22;5032604;28;20116;-82
2023/06/28 10:32:49;;;;;;;7.40;3.47;;;;;;;18.93;70.62;101717.81;5046362;28;20476;-83
2023/06/28 10:35:15;;;;;;;8.57;3.88;;;;;;;19.06;71.35;101722.53;5052813;28;20523;-83
2023/06/28 10:37:40;;;;;;;7.22;4.10;;;;;;;19.16;72.14;101718.53;5052089;28;20381;-82
2023/06/28 10:40:09;;;;;;;6.25;3.53;;;;;;;19.27;72.29;101720.66;5052263;28;20036;-82
2023/06/28 10:42:39;;;;;;;7.53;3.60;;;;;;;19.38;72.45;101715.72;5029806;28;20051;-83
2023/06/28 10:45:05;;;;;;;9.05;3.85;;;;;;;19.49;72.97;101715.16;5051051;28;20049;-82
2023/06/28 10:47:33;;;;;;;5.63;3.47;;;;;;;19.56;70.73;101721.84;5045880;28;20032;-82
2023/06/28 10:50:10;;;;;;;5.80;3.35;;;;;;;19.60;69.09;101727.00;5047382;28;20407;-81
2023/06/28 10:52:44;;;;;;;8.43;3.67;;;;;;;19.62;68.76;101719.84;5046967;28;20025;-82
2023/06/28 10:55:11;;;;;;;5.15;3.55;;;;;;;19.71;69.29;101719.38;5046585;28;20078;-81
2023/06/28 10:57:38;;;;;;;7.47;3.45;;;;;;;19.80;69.60;101712.78;5025028;28;20068;-82
2023/06/28 11:00:11;;;;;;;6.50;3.22;;;;;;;19.87;67.64;101716.84;5047263;28;20029;-80
2023/06/28 11:03:06;;;;;;;6.63;3.35;;;;;;;19.98;69.16;101716.31;5044724;28;20037;-82
2023/06/28 11:05:44;;;;;;;7.55;2.95;;;;;;;20.05;67.75;101714.19;5020160;28;20072;-81
2023/06/28 11:08:14;;;;;;;7.68;3.40;;;;;;;20.12;66.78;101710.28;5047303;28;20032;-83
2023/06/28 11:10:41;;;;;;;7.20;3.53;;;;;;;20.26;68.09;101709.56;5047131;28;20086;-83
2023/06/28 11:13:10;;;;;;;9.63;3.60;;;;;;;20.34;66.75;101703.88;5043089;28;20045;-82
2023/06/28 11:15:42;;;;;;;6.32;3.30;;;;;;;20.41;65.19;101708.75;5041062;28;20472;-82
2023/06/28 11:18:10;;;;;;;7.38;3.75;;;;;;;20.52;66.12;101699.38;5048107;28;20422;-82
2023/06/28 11:20:50;;;;;;;7.90;3.35;;;;;;;20.58;65.84;101705.19;5046238;28;20020;-83